Time;durP1;ratioP1;P1;durP2;ratioP2;P2;SDS_P1;SDS_P2;PMS_P1;PMS_P2;Temp;Humidity;BMP_temperature;BMP_pressure;BME280_temperature;BME280_humidity;BME280_pressure;Samples;Min_cycle;Max_cycle;Signal;HPM_P1;HPM_P2
2021/10/25 00:01:07;;;;;;;10.23;1.27;;;;;;;;;;5059023;28;20075;-52
2021/10/25 00:03:32;;;;;;;16.40;1.35;;;;;;;;;;5051219;28;20094;-52
2021/10/25 00:05:58;;;;;;;6.22;0.95;;;;;;;;;;5059392;28;20037;-52
2021/10/25 00:08:23;;;;;;;10.55;0.95;;;;;;;;;;5053381;28;20359;-49
2021/10/25 00:10:49;;;;;;;11.30;1.23;;;;;;;;;;5053697;28;20040;-48
2021/10/25 00:13:15;;;;;;;11.75;1.88;;;;;;;;;;5055999;28;20032;-51
2021/10/25 00:15:41;;;;;;;7.22;0.98;;;;;;;;;;5053818;28;20557;-53
2021/10/25 00:18:07;;;;;;;8.30;1.30;;;;;;;;;;5055848;28;20033;-50
2021/10/25 00:20:33;;;;;;;12.15;1.30;;;;;;;;;;5053036;28;20031;-51
2021/10/25 00:23:00;;;;;;;8.82;1.42;;;;;;;;;;5057310;28;20033;-49
2021/10/25 00:25:25;;;;;;;8.40;1.48;;;;;;;;;;5055992;28;20116;-49
2021/10/25 00:27:51;;;;;;;9.95;1.63;;;;;;;;;;5054230;28;20159;-52
2021/10/25 00:30:16;;;;;;;12.05;1.98;;;;;;;;;;5051015;28;20110;-51
2021/10/25 00:32:42;;;;;;;12.63;2.17;;;;;;;;;;5051196;28;20104;-52
2021/10/25 00:35:08;;;;;;;8.45;1.23;;;;;;;;;;5052945;28;20028;-51
2021/10/25 00:37:34;;;;;;;16.77;1.65;;;;;;;;;;5054442;28;20032;-52
2021/10/25 00:40:00;;;;;;;17.10;2.45;;;;;;;;;;5050849;28;20029;-52
2021/10/25 00:42:25;;;;;;;14.13;1.77;;;;;;;;;;5051423;28;20040;-52
2021/10/25 00:44:51;;;;;;;9.25;1.35;;;;;;;;;;5052676;28;20027;-49
2021/10/25 00:47:17;;;;;;;7.47;0.95;;;;;;;;;;5054807;28;20040;-49
2021/10/25 00:49:42;;;;;;;16.35;2.08;;;;;;;;;;5059399;28;20025;-49
2021/10/25 00:52:09;;;;;;;16.67;1.67;;;;;;;;;;5057487;28;20113;-49
2021/10/25 00:54:35;;;;;;;11.52;1.67;;;;;;;;;;5058966;28;20045;-52
2021/10/25 00:57:03;;;;;;;15.32;1.55;;;;;;;;;;5060623;28;20415;-53
2021/10/25 00:59:28;;;;;;;6.72;0.85;;;;;;;;;;5057011;28;20183;-50
2021/10/25 01:01:54;;;;;;;13.80;1.45;;;;;;;;;;5097034;28;20140;-52
2021/10/25 01:04:20;;;;;;;11.50;1.48;;;;;;;;;;5092351;28;20039;-51
2021/10/25 01:06:47;;;;;;;12.00;1.00;;;;;;;;;;5097063;28;20110;-48
2021/10/25 01:09:14;;;;;;;9.95;1.77;;;;;;;;;;5099027;28;20031;-51
2021/10/25 01:11:41;;;;;;;16.15;2.25;;;;;;;;;;5095009;28;20068;-52
2021/10/25 01:14:07;;;;;;;12.32;1.05;;;;;;;;;;5094912;28;20127;-48
2021/10/25 01:16:33;;;;;;;17.25;1.33;;;;;;;;;;5095315;28;20517;-51
2021/10/25 01:18:58;;;;;;;7.50;1.02;;;;;;;;;;5096427;28;20497;-51
2021/10/25 01:21:24;;;;;;;8.27;0.98;;;;;;;;;;5100538;28;20073;-49
2021/10/25 01:23:52;;;;;;;9.48;0.75;;;;;;;;;;5096880;28;20073;-51
2021/10/25 01:26:21;;;;;;;15.65;1.88;;;;;;;;;;5103220;28;20087;-49
2021/10/25 01:28:48;;;;;;;8.65;1.50;;;;;;;;;;5094775;28;20024;-50
2021/10/25 01:31:16;;;;;;;13.13;1.30;;;;;;;;;;5093977;28;20036;-49
2021/10/25 01:33:45;;;;;;;18.30;2.95;;;;;;;;;;5091856;28;20035;-51
2021/10/25 01:36:11;;;;;;;14.02;1.63;;;;;;;;;;5092753;28;20496;-51
2021/10/25 01:38:36;;;;;;;8.75;1.08;;;;;;;;;;5093274;28;20032;-53
2021/10/25 01:41:02;;;;;;;20.98;1.90;;;;;;;;;;5096178;28;20375;-50
2021/10/25 01:43:27;;;;;;;15.15;1.58;;;;;;;;;;5095035;28;20047;-50
2021/10/25 01:45:53;;;;;;;18.92;1.50;;;;;;;;;;5099574;28;20516;-51
2021/10/25 01:48:19;;;;;;;9.48;1.33;;;;;;;;;;5095807;28;20036;-50
2021/10/25 01:50:44;;;;;;;13.63;1.67;;;;;;;;;;5096666;28;20030;-52
2021/10/25 01:53:10;;;;;;;15.30;1.48;;;;;;;;;;5098511;28;20056;-51
2021/10/25 01:55:36;;;;;;;13.25;1.77;;;;;;;;;;5094255;28;20078;-51
2021/10/25 01:58:02;;;;;;;18.02;1.67;;;;;;;;;;5099827;28;20508;-50
2021/10/25 02:00:27;;;;;;;15.35;1.65;;;;;;;;;;5083107;28;20402;-51
2021/10/25 02:02:53;;;;;;;29.08;2.60;;;;;;;;;;5093149;28;20027;-50
2021/10/25 02:05:18;;;;;;;11.07;1.10;;;;;;;;;;5093969;28;20028;-51
2021/10/25 02:07:44;;;;;;;18.85;1.70;;;;;;;;;;5095705;28;20031;-51
2021/10/25 02:10:11;;;;;;;12.25;2.40;;;;;;;;;;5089326;28;20073;-52
2021/10/25 02:12:37;;;;;;;16.23;2.03;;;;;;;;;;5092703;28;20074;-53
2021/10/25 02:15:03;;;;;;;19.27;1.77;;;;;;;;;;5093118;28;20490;-53
2021/10/25 02:17:29;;;;;;;16.30;1.80;;;;;;;;;;5094408;28;20044;-53
2021/10/25 02:19:54;;;;;;;6.78;1.00;;;;;;;;;;5092234;28;20440;-53
2021/10/25 02:22:20;;;;;;;16.45;1.67;;;;;;;;;;5095425;28;20039;-52
2021/10/25 02:24:47;;;;;;;10.75;1.50;;;;;;;;;;5092380;28;20123;-52
2021/10/25 02:27:13;;;;;;;9.40;1.38;;;;;;;;;;5097287;28;20059;-51
2021/10/25 02:29:39;;;;;;;18.15;1.50;;;;;;;;;;5089131;28;20016;-53
2021/10/25 02:32:06;;;;;;;14.52;1.02;;;;;;;;;;5099668;28;20032;-53
2021/10/25 02:34:33;;;;;;;10.00;1.33;;;;;;;;;;5095652;28;20046;-52
2021/10/25 02:36:59;;;;;;;9.65;1.02;;;;;;;;;;5074511;28;20495;-49
2021/10/25 02:39:25;;;;;;;11.13;1.33;;;;;;;;;;5091444;28;20051;-48
2021/10/25 02:41:51;;;;;;;9.73;1.25;;;;;;;;;;5097117;28;20078;-48
2021/10/25 02:44:17;;;;;;;10.50;1.23;;;;;;;;;;5101673;28;20479;-50
2021/10/25 02:46:43;;;;;;;15.18;1.50;;;;;;;;;;5098270;28;20494;-50
2021/10/25 02:49:08;;;;;;;9.07;0.77;;;;;;;;;;5097245;28;20057;-50
2021/10/25 02:51:34;;;;;;;10.80;1.02;;;;;;;;;;5093488;28;20051;-49
2021/10/25 02:53:59;;;;;;;17.30;1.13;;;;;;;;;;5093369;28;20047;-52
2021/10/25 02:56:25;;;;;;;7.22;0.98;;;;;;;;;;5095180;28;20032;-52
2021/10/25 02:58:51;;;;;;;11.55;1.40;;;;;;;;;;5099156;28;20043;-51
2021/10/25 03:01:17;;;;;;;9.93;1.02;;;;;;;;;;5079276;28;20047;-51
2021/10/25 03:03:43;;;;;;;13.50;1.27;;;;;;;;;;5095861;28;20027;-50
2021/10/25 03:06:09;;;;;;;4.35;1.13;;;;;;;;;;5104463;28;20385;-52
2021/10/25 03:08:34;;;;;;;9.30;1.15;;;;;;;;;;5093209;28;20032;-49
2021/10/25 03:11:00;;;;;;;8.95;1.05;;;;;;;;;;5099858;28;20055;-48
2021/10/25 03:13:27;;;;;;;5.68;0.82;;;;;;;;;;5102015;28;20042;-49
2021/10/25 03:15:53;;;;;;;12.05;1.60;;;;;;;;;;5095719;28;20020;-49
2021/10/25 03:18:18;;;;;;;13.50;1.33;;;;;;;;;;5093937;28;20039;-52
2021/10/25 03:20:44;;;;;;;12.77;1.35;;;;;;;;;;5099163;28;20805;-50
2021/10/25 03:23:11;;;;;;;15.30;1.38;;;;;;;;;;5093806;28;20036;-52
2021/10/25 03:25:36;;;;;;;7.82;1.33;;;;;;;;;;5097181;28;20035;-48
2021/10/25 03:28:02;;;;;;;24.15;2.10;;;;;;;;;;5093007;28;20084;-53
2021/10/25 03:30:28;;;;;;;15.70;1.48;;;;;;;;;;5098063;28;20036;-52
2021/10/25 03:32:53;;;;;;;8.25;1.20;;;;;;;;;;5093434;28;20059;-52
2021/10/25 03:35:19;;;;;;;25.55;1.40;;;;;;;;;;5092149;28;20040;-49
2021/10/25 03:37:45;;;;;;;17.35;1.85;;;;;;;;;;5096331;28;20478;-52
2021/10/25 03:40:11;;;;;;;15.40;1.35;;;;;;;;;;5101064;28;20039;-53
2021/10/25 03:42:46;;;;;;;22.77;2.00;;;;;;;;;;5096047;28;20019;-52
2021/10/25 03:55:12;;;;;;;18.60;1.83;;;;;;;;;;5094189;28;20262;-51
2021/10/25 03:58:01;;;;;;;6.93;1.50;;;;;;;;;;5099374;28;20463;-52
2021/10/25 04:27:45;;;;;;;9.18;1.48;;;;;;;;;;5094089;28;20077;-50
2021/10/25 04:30:12;;;;;;;16.73;1.42;;;;;;;;;;5094247;28;20299;-50
2021/10/25 04:32:38;;;;;;;5.78;1.02;;;;;;;;;;5098821;28;20126;-52
2021/10/25 04:35:05;;;;;;;10.68;1.35;;;;;;;;;;5095968;28;20035;-52
2021/10/25 04:37:30;;;;;;;11.02;1.25;;;;;;;;;;5093404;28;20495;-50
2021/10/25 04:39:56;;;;;;;13.05;1.85;;;;;;;;;;5090016;28;20111;-51
2021/10/25 04:42:21;;;;;;;8.40;1.30;;;;;;;;;;5095463;28;20050;-52
2021/10/25 04:44:48;;;;;;;7.55;0.95;;;;;;;;;;5083754;28;20115;-53
2021/10/25 04:47:15;;;;;;;13.18;1.15;;;;;;;;;;5092283;28;20024;-50
2021/10/25 04:49:41;;;;;;;5.72;0.85;;;;;;;;;;5097065;28;20069;-52
2021/10/25 04:52:07;;;;;;;29.55;2.15;;;;;;;;;;5075588;28;20089;-49
2021/10/25 04:54:34;;;;;;;11.80;1.10;;;;;;;;;;5097026;28;20498;-51
2021/10/25 04:56:59;;;;;;;13.05;1.38;;;;;;;;;;5099214;28;20031;-52
2021/10/25 04:59:25;;;;;;;11.07;2.13;;;;;;;;;;5098435;28;20321;-53
2021/10/25 05:01:50;;;;;;;15.13;1.10;;;;;;;;;;5096529;28;20072;-52
2021/10/25 05:04:16;;;;;;;13.05;1.27;;;;;;;;;;5096446;28;20039;-49
2021/10/25 05:06:42;;;;;;;11.55;0.90;;;;;;;;;;5094017;28;20027;-52
2021/10/25 05:09:08;;;;;;;14.35;1.20;;;;;;;;;;5097091;28;20556;-50
2021/10/25 05:11:34;;;;;;;9.65;1.52;;;;;;;;;;5099979;28;20070;-51
2021/10/25 05:14:00;;;;;;;13.77;2.05;;;;;;;;;;5094181;28;20070;-51
2021/10/25 05:16:25;;;;;;;11.25;1.65;;;;;;;;;;5095507;28;20054;-50
2021/10/25 05:18:51;;;;;;;14.35;1.63;;;;;;;;;;5094353;28;20030;-51
2021/10/25 05:21:16;;;;;;;8.68;1.48;;;;;;;;;;5091360;28;20123;-49
2021/10/25 05:23:42;;;;;;;17.52;1.48;;;;;;;;;;5094793;28;20046;-49
2021/10/25 05:26:08;;;;;;;18.13;1.95;;;;;;;;;;5092008;28;20032;-52
2021/10/25 05:28:34;;;;;;;12.55;1.33;;;;;;;;;;5097313;28;20031;-53
2021/10/25 05:30:59;;;;;;;10.18;1.83;;;;;;;;;;5076654;28;20051;-52
2021/10/25 05:33:25;;;;;;;13.98;1.15;;;;;;;;;;5093613;28;20110;-50
2021/10/25 05:35:50;;;;;;;7.35;1.05;;;;;;;;;;5096780;28;20112;-51
2021/10/25 05:38:16;;;;;;;11.57;1.63;;;;;;;;;;5094408;28;20182;-49
2021/10/25 05:40:42;;;;;;;9.80;1.20;;;;;;;;;;5094154;28;20035;-52
2021/10/25 05:43:08;;;;;;;12.43;1.30;;;;;;;;;;5094410;28;20032;-53
2021/10/25 05:45:34;;;;;;;5.93;1.17;;;;;;;;;;5093117;28;20028;-52
2021/10/25 05:47:59;;;;;;;8.90;0.90;;;;;;;;;;5100465;28;20024;-52
2021/10/25 05:50:25;;;;;;;5.93;0.90;;;;;;;;;;5093387;28;20035;-50
2021/10/25 05:52:50;;;;;;;14.43;1.92;;;;;;;;;;5093600;28;20044;-51
2021/10/25 05:55:21;;;;;;;12.80;1.85;;;;;;;;;;5096029;28;20034;-52
2021/10/25 05:57:48;;;;;;;11.80;1.60;;;;;;;;;;5091646;28;20026;-53
2021/10/25 06:00:14;;;;;;;7.53;1.23;;;;;;;;;;5092177;28;20040;-52
2021/10/25 06:02:40;;;;;;;11.45;1.45;;;;;;;;;;5090529;28;20031;-52
2021/10/25 06:05:07;;;;;;;7.25;1.20;;;;;;;;;;5085986;28;20024;-49
2021/10/25 06:07:33;;;;;;;7.82;0.80;;;;;;;;;;5094508;28;20028;-53
2021/10/25 06:09:59;;;;;;;13.50;1.35;;;;;;;;;;5091105;28;20050;-50
2021/10/25 06:12:26;;;;;;;5.18;0.60;;;;;;;;;;5099721;28;20039;-52
2021/10/25 06:14:54;;;;;;;14.20;1.02;;;;;;;;;;5095986;28;20037;-52
2021/10/25 06:17:51;;;;;;;6.70;1.25;;;;;;;;;;5066473;28;20028;-53
2021/10/25 06:20:10;;;;;;;7.93;1.00;;;;;;;;;;5090692;28;20055;-53
2021/10/25 06:22:38;;;;;;;14.18;1.73;;;;;;;;;;5096655;28;20034;-53
2021/10/25 06:25:11;;;;;;;11.38;2.08;;;;;;;;;;5090557;28;20082;-51
2021/10/25 06:27:37;;;;;;;10.45;0.80;;;;;;;;;;5090904;28;20036;-52
2021/10/25 06:30:04;;;;;;;10.95;1.65;;;;;;;;;;5076529;28;20027;-53
2021/10/25 06:32:29;;;;;;;9.45;1.30;;;;;;;;;;5091895;28;20034;-54
2021/10/25 06:34:57;;;;;;;8.82;1.20;;;;;;;;;;5092143;28;20028;-53
2021/10/25 06:37:27;;;;;;;14.65;1.00;;;;;;;;;;5093944;28;20118;-51
2021/10/25 06:39:56;;;;;;;11.52;1.00;;;;;;;;;;5092871;28;20558;-52
2021/10/25 06:42:24;;;;;;;10.88;0.90;;;;;;;;;;5089133;28;20032;-53
2021/10/25 06:44:57;;;;;;;9.93;1.10;;;;;;;;;;5090247;28;20462;-51
2021/10/25 06:47:23;;;;;;;11.02;0.95;;;;;;;;;;5090101;28;20035;-49
2021/10/25 06:49:49;;;;;;;14.07;1.08;;;;;;;;;;5071225;28;20402;-50
2021/10/25 06:52:15;;;;;;;15.18;2.00;;;;;;;;;;5088586;28;20065;-50
2021/10/25 06:54:41;;;;;;;8.70;1.13;;;;;;;;;;5089569;28;20125;-50
2021/10/25 06:57:06;;;;;;;8.65;1.33;;;;;;;;;;5090113;28;20153;-53
2021/10/25 06:59:32;;;;;;;12.95;1.75;;;;;;;;;;5087800;28;20024;-53
2021/10/25 07:01:57;;;;;;;11.02;1.05;;;;;;;;;;5089111;28;20020;-53
2021/10/25 07:04:23;;;;;;;14.27;1.10;;;;;;;;;;5096545;28;20035;-53
2021/10/25 07:06:51;;;;;;;6.93;0.80;;;;;;;;;;5071720;28;20070;-50
2021/10/25 07:09:18;;;;;;;7.47;0.95;;;;;;;;;;5088256;28;20067;-52
2021/10/25 07:11:45;;;;;;;7.57;0.70;;;;;;;;;;5093059;28;20028;-52
2021/10/25 07:14:12;;;;;;;16.30;2.30;;;;;;;;;;5088628;28;20028;-51
2021/10/25 07:19:15;;;;;;;6.65;1.48;;;;;;;;;;5094139;28;20698;-52
2021/10/25 08:05:17;;;;;;;19.40;2.05;;;;;;;;;;5089841;28;20435;-51
2021/10/25 08:10:32;;;;;;;9.93;1.45;;;;;;;;;;5071333;28;20078;-49
2021/10/25 08:13:01;;;;;;;10.82;0.88;;;;;;;;;;5094126;28;20424;-51
2021/10/25 08:15:34;;;;;;;14.38;1.55;;;;;;;;;;5088619;28;20059;-52
2021/10/25 08:18:02;;;;;;;14.55;1.60;;;;;;;;;;5091299;27;20502;-51
2021/10/25 08:20:27;;;;;;;12.07;1.17;;;;;;;;;;5091672;28;20089;-52
2021/10/25 08:22:53;;;;;;;17.90;0.90;;;;;;;;;;5089381;28;20040;-49
2021/10/25 08:25:19;;;;;;;17.95;1.13;;;;;;;;;;5102520;28;20032;-51
2021/10/25 08:27:45;;;;;;;10.05;1.08;;;;;;;;;;5095626;28;20113;-53
2021/10/25 08:30:13;;;;;;;12.32;1.08;;;;;;;;;;5093895;28;20027;-51
2021/10/25 08:33:01;;;;;;;8.90;1.48;;;;;;;;;;5092042;28;20071;-51
2021/10/25 08:40:39;;;;;;;10.52;1.38;;;;;;;;;;5092629;28;20035;-52
2021/10/25 08:43:06;;;;;;;9.07;0.80;;;;;;;;;;5092759;28;20028;-47
2021/10/25 08:45:33;;;;;;;6.53;0.70;;;;;;;;;;5090672;28;20027;-50
2021/10/25 08:48:00;;;;;;;8.15;1.00;;;;;;;;;;5091199;28;20035;-49
2021/10/25 08:50:34;;;;;;;10.52;1.30;;;;;;;;;;5089441;28;20251;-53
2021/10/25 08:53:01;;;;;;;8.02;1.13;;;;;;;;;;5090905;28;20058;-51
2021/10/25 08:55:27;;;;;;;8.43;1.17;;;;;;;;;;5088192;28;20040;-49
2021/10/25 08:57:54;;;;;;;5.55;0.70;;;;;;;;;;5089891;28;20511;-49
2021/10/25 09:00:33;;;;;;;8.57;1.02;;;;;;;;;;5096127;28;20212;-51
2021/10/25 09:03:01;;;;;;;4.75;1.27;;;;;;;;;;5098899;28;20049;-51
2021/10/25 09:05:27;;;;;;;9.43;1.05;;;;;;;;;;5095715;28;20020;-51
2021/10/25 09:08:03;;;;;;;14.15;1.00;;;;;;;;;;5093306;28;20024;-52
2021/10/25 09:10:36;;;;;;;16.17;1.13;;;;;;;;;;5095830;28;20161;-52
2021/10/25 09:13:08;;;;;;;9.55;1.30;;;;;;;;;;5099277;28;20028;-50
2021/10/25 09:15:37;;;;;;;7.88;0.70;;;;;;;;;;5101158;28;20417;-52
2021/10/25 09:18:24;;;;;;;11.05;1.20;;;;;;;;;;5094179;28;20032;-50
2021/10/25 09:20:51;;;;;;;13.38;1.35;;;;;;;;;;5096427;28;20187;-51
2021/10/25 09:23:25;;;;;;;7.45;1.17;;;;;;;;;;5092848;28;20556;-51
2021/10/25 09:25:56;;;;;;;5.43;0.57;;;;;;;;;;5098923;28;20126;-52
2021/10/25 09:28:28;;;;;;;8.40;0.88;;;;;;;;;;5099342;28;20081;-52
2021/10/25 09:31:02;;;;;;;7.85;0.70;;;;;;;;;;5097062;28;20031;-52
2021/10/25 09:33:37;;;;;;;14.52;1.50;;;;;;;;;;5093062;28;20043;-52
2021/10/25 09:36:13;;;;;;;18.70;3.33;;;;;;;;;;5096834;28;20103;-52
2021/10/25 09:49:14;;;;;;;5.43;1.05;;;;;;;;;;5092910;28;20074;-50
2021/10/25 09:51:51;;;;;;;7.68;1.13;;;;;;;;;;5098613;28;20469;-51
2021/10/25 09:54:22;;;;;;;10.65;1.02;;;;;;;;;;5096495;28;20498;-53
2021/10/25 09:59:56;;;;;;;9.48;0.95;;;;;;;;;;5097461;28;20119;-53
2021/10/25 10:02:23;;;;;;;11.93;0.75;;;;;;;;;;5088927;28;20096;-52
2021/10/25 10:05:03;;;;;;;3.92;0.57;;;;;;;;;;5095293;28;20031;-53
2021/10/25 10:07:29;;;;;;;6.85;0.68;;;;;;;;;;5089017;28;20032;-49
2021/10/25 10:09:55;;;;;;;6.57;0.85;;;;;;;;;;5093588;28;20034;-52
2021/10/25 10:12:23;;;;;;;10.77;1.00;;;;;;;;;;5094033;28;20016;-53
2021/10/25 10:14:51;;;;;;;7.72;0.63;;;;;;;;;;5088976;28;20047;-51
2021/10/25 10:17:36;;;;;;;6.72;0.90;;;;;;;;;;5090673;28;22247;-50
2021/10/25 10:20:09;;;;;;;5.35;1.35;;;;;;;;;;5090448;28;20031;-52
2021/10/25 10:22:38;;;;;;;10.27;1.00;;;;;;;;;;5093065;28;20088;-52
2021/10/25 10:25:05;;;;;;;7.38;0.80;;;;;;;;;;5094869;28;20024;-53
2021/10/25 10:27:30;;;;;;;12.85;2.20;;;;;;;;;;5088743;28;20227;-52
2021/10/25 10:29:59;;;;;;;8.82;0.98;;;;;;;;;;5092366;28;20300;-52
2021/10/25 10:32:27;;;;;;;5.82;0.75;;;;;;;;;;5087926;28;20043;-52
2021/10/25 10:34:53;;;;;;;3.28;0.68;;;;;;;;;;5091092;28;20133;-49
2021/10/25 10:37:24;;;;;;;5.82;0.60;;;;;;;;;;5077196;28;20032;-50
2021/10/25 10:40:15;;;;;;;3.67;0.60;;;;;;;;;;5090252;28;20020;-50
2021/10/25 10:42:50;;;;;;;4.38;0.70;;;;;;;;;;5094953;28;20406;-48
2021/10/25 10:45:17;;;;;;;6.65;0.85;;;;;;;;;;5098302;28;20106;-49
2021/10/25 10:47:54;;;;;;;8.25;0.63;;;;;;;;;;5091181;28;20366;-49
2021/10/25 10:50:34;;;;;;;6.38;1.25;;;;;;;;;;5093701;28;20044;-49
2021/10/25 10:53:11;;;;;;;6.63;0.93;;;;;;;;;;5094597;28;20111;-49
2021/10/25 10:55:39;;;;;;;5.45;1.00;;;;;;;;;;5096711;28;20032;-52
2021/10/25 11:00:34;;;;;;;11.13;0.98;;;;;;;;;;5097908;28;20098;-49
2021/10/25 11:03:18;;;;;;;6.95;1.55;;;;;;;;;;5097755;28;20111;-48
2021/10/25 11:05:45;;;;;;;6.55;0.98;;;;;;;;;;5101134;28;20123;-51
2021/10/25 11:08:17;;;;;;;5.55;1.20;;;;;;;;;;5096153;28;20023;-48
2021/10/25 11:10:48;;;;;;;6.82;0.82;;;;;;;;;;5095919;28;20039;-52
2021/10/25 11:13:21;;;;;;;12.27;1.20;;;;;;;;;;5100010;28;20062;-51
2021/10/25 11:15:55;;;;;;;11.02;0.88;;;;;;;;;;5098748;28;20081;-50
2021/10/25 11:18:30;;;;;;;5.28;0.90;;;;;;;;;;5083250;28;20245;-51
2021/10/25 11:21:24;;;;;;;11.65;1.20;;;;;;;;;;5094405;28;20052;-51
2021/10/25 11:24:06;;;;;;;13.55;1.20;;;;;;;;;;5092662;28;20016;-51
2021/10/25 11:26:39;;;;;;;6.85;1.58;;;;;;;;;;5092980;28;20096;-52
2021/10/25 11:29:12;;;;;;;15.30;1.50;;;;;;;;;;5094303;28;20035;-52
2021/10/25 11:31:49;;;;;;;13.75;1.30;;;;;;;;;;5106252;28;20439;-51
2021/10/25 11:34:21;;;;;;;8.48;1.00;;;;;;;;;;5091489;28;20105;-52
2021/10/25 11:36:55;;;;;;;14.30;1.63;;;;;;;;;;5095896;28;20015;-53
2021/10/25 11:39:45;;;;;;;6.72;1.10;;;;;;;;;;5091472;28;20406;-51
2021/10/25 11:42:18;;;;;;;9.35;1.00;;;;;;;;;;5095414;28;20485;-48
2021/10/25 11:44:48;;;;;;;8.77;0.98;;;;;;;;;;5099861;28;20053;-51
2021/10/25 11:47:24;;;;;;;8.85;1.20;;;;;;;;;;5101085;28;20031;-53
2021/10/25 11:49:58;;;;;;;7.78;1.00;;;;;;;;;;5099587;28;20028;-53
2021/10/25 11:52:24;;;;;;;14.18;1.15;;;;;;;;;;5100241;28;20350;-52
2021/10/25 11:54:52;;;;;;;5.30;0.60;;;;;;;;;;5099001;28;20501;-52
2021/10/25 11:57:19;;;;;;;5.18;0.90;;;;;;;;;;5100095;28;20567;-51
2021/10/25 12:00:05;;;;;;;8.68;1.15;;;;;;;;;;5086580;28;20028;-51
2021/10/25 12:02:31;;;;;;;6.95;1.25;;;;;;;;;;5093379;28;20036;-52
2021/10/25 12:04:57;;;;;;;8.95;0.80;;;;;;;;;;5079396;28;20035;-50
2021/10/25 12:07:23;;;;;;;9.32;1.05;;;;;;;;;;5101134;28;20849;-49
2021/10/25 12:10:04;;;;;;;7.32;1.10;;;;;;;;;;5095047;28;20482;-53
2021/10/25 12:12:31;;;;;;;6.57;0.90;;;;;;;;;;5094006;28;20150;-52
2021/10/25 12:15:03;;;;;;;6.05;1.15;;;;;;;;;;5099902;28;20127;-51
2021/10/25 12:17:33;;;;;;;9.02;0.98;;;;;;;;;;5095013;28;20451;-53
2021/10/25 12:20:01;;;;;;;6.22;1.15;;;;;;;;;;5092657;28;20024;-52
2021/10/25 12:22:27;;;;;;;5.22;0.80;;;;;;;;;;5093445;28;20031;-51
2021/10/25 12:24:55;;;;;;;7.28;1.05;;;;;;;;;;5092845;28;20039;-50
2021/10/25 12:27:26;;;;;;;11.10;0.90;;;;;;;;;;5092734;28;20410;-48
2021/10/25 12:30:21;;;;;;;5.18;0.90;;;;;;;;;;5098969;28;20016;-53
2021/10/25 12:32:55;;;;;;;4.10;0.70;;;;;;;;;;5080560;28;20043;-48
2021/10/25 12:35:35;;;;;;;8.45;1.17;;;;;;;;;;5095246;28;20227;-50
2021/10/25 12:38:04;;;;;;;5.00;0.90;;;;;;;;;;5101757;28;20406;-51
2021/10/25 12:40:37;;;;;;;5.38;1.45;;;;;;;;;;5095750;28;20026;-53
2021/10/25 12:43:03;;;;;;;11.35;1.00;;;;;;;;;;5095784;28;20035;-52
2021/10/25 12:45:34;;;;;;;7.20;0.93;;;;;;;;;;5095690;28;20032;-52
2021/10/25 12:48:00;;;;;;;7.53;1.10;;;;;;;;;;5094939;28;20269;-51
2021/10/25 12:50:31;;;;;;;6.20;1.25;;;;;;;;;;5095059;28;20032;-53
2021/10/25 12:52:56;;;;;;;5.87;1.07;;;;;;;;;;5094276;28;20020;-52
2021/10/25 12:55:23;;;;;;;4.05;0.80;;;;;;;;;;5091930;28;20089;-53
2021/10/25 12:57:48;;;;;;;7.60;1.10;;;;;;;;;;5095258;28;20514;-52
2021/10/25 13:00:16;;;;;;;4.60;1.05;;;;;;;;;;5097683;28;20028;-54
2021/10/25 13:02:47;;;;;;;10.82;1.15;;;;;;;;;;5093345;28;20479;-52
2021/10/25 13:05:22;;;;;;;6.68;1.20;;;;;;;;;;5095665;28;20444;-51
2021/10/25 13:07:49;;;;;;;9.55;1.23;;;;;;;;;;5093269;28;20038;-52
2021/10/25 13:10:17;;;;;;;6.47;1.38;;;;;;;;;;5093634;28;20051;-51
2021/10/25 13:12:42;;;;;;;9.27;1.27;;;;;;;;;;5099015;27;20024;-53
2021/10/25 13:15:08;;;;;;;10.02;1.40;;;;;;;;;;5099216;28;20092;-52
2021/10/25 13:17:34;;;;;;;7.00;1.00;;;;;;;;;;5090603;28;20028;-52
2021/10/25 13:20:00;;;;;;;8.77;1.63;;;;;;;;;;5093157;28;20037;-53
2021/10/25 13:22:25;;;;;;;9.00;1.30;;;;;;;;;;5097290;28;20032;-53
2021/10/25 13:24:51;;;;;;;4.63;1.02;;;;;;;;;;5093771;28;20056;-52
2021/10/25 13:27:17;;;;;;;7.28;1.38;;;;;;;;;;5091285;28;20458;-51
2021/10/25 13:29:42;;;;;;;10.20;1.40;;;;;;;;;;5088677;28;20081;-52
2021/10/25 13:32:08;;;;;;;5.38;1.38;;;;;;;;;;5095212;28;20040;-52
2021/10/25 13:34:33;;;;;;;6.00;1.25;;;;;;;;;;5094481;28;20047;-53
2021/10/25 13:36:59;;;;;;;3.70;1.30;;;;;;;;;;5096569;28;20236;-51
2021/10/25 13:39:24;;;;;;;5.63;1.63;;;;;;;;;;5092779;28;20536;-51
2021/10/25 13:41:53;;;;;;;4.72;0.98;;;;;;;;;;5093449;28;20558;-52
2021/10/25 13:44:18;;;;;;;6.35;1.42;;;;;;;;;;5100667;28;20058;-51
2021/10/25 13:46:44;;;;;;;4.55;1.10;;;;;;;;;;5095451;28;20019;-53
2021/10/25 13:49:10;;;;;;;7.40;1.20;;;;;;;;;;5094716;28;20040;-51
2021/10/25 13:51:36;;;;;;;10.35;1.15;;;;;;;;;;5092617;28;20419;-52
2021/10/25 13:54:03;;;;;;;6.43;1.08;;;;;;;;;;5105927;27;20406;-51
2021/10/25 13:56:28;;;;;;;7.60;1.15;;;;;;;;;;5097445;27;20111;-52
2021/10/25 13:58:56;;;;;;;4.20;1.00;;;;;;;;;;5090568;28;20134;-51
2021/10/25 14:01:21;;;;;;;3.65;0.93;;;;;;;;;;5094162;28;20441;-52
2021/10/25 14:03:49;;;;;;;10.02;2.20;;;;;;;;;;5096820;28;20031;-52
2021/10/25 14:06:15;;;;;;;6.05;1.20;;;;;;;;;;5094901;28;20084;-50
2021/10/25 14:08:43;;;;;;;4.70;1.08;;;;;;;;;;5096278;28;20028;-53
2021/10/25 14:11:09;;;;;;;5.13;1.05;;;;;;;;;;5096677;28;20032;-52
2021/10/25 14:16:21;;;;;;;9.38;1.02;;;;;;;;;;5093748;28;20497;-52
2021/10/25 14:18:48;;;;;;;5.35;1.02;;;;;;;;;;5091959;28;20036;-51
2021/10/25 14:21:15;;;;;;;6.93;1.23;;;;;;;;;;5099531;28;20028;-52
2021/10/25 14:23:41;;;;;;;7.90;1.20;;;;;;;;;;5094339;28;20038;-52
2021/10/25 14:26:07;;;;;;;4.97;1.00;;;;;;;;;;5097833;28;20042;-50
2021/10/25 14:28:33;;;;;;;8.38;1.35;;;;;;;;;;5091130;28;20032;-49
2021/10/25 14:30:59;;;;;;;7.75;1.40;;;;;;;;;;5092936;28;20036;-51
2021/10/25 14:33:26;;;;;;;8.65;1.35;;;;;;;;;;5091096;28;20040;-50
2021/10/25 14:35:53;;;;;;;5.90;1.38;;;;;;;;;;5092022;28;20189;-51
2021/10/25 14:38:34;;;;;;;6.15;1.20;;;;;;;;;;5090679;28;20088;-51
2021/10/25 14:43:55;;;;;;;5.97;1.42;;;;;;;;;;5054605;28;20044;-50
2021/10/25 14:46:52;;;;;;;13.05;1.77;;;;;;;;;;5082583;28;20123;-51
2021/10/25 14:55:18;;;;;;;9.35;1.52;;;;;;;;;;5098097;28;20551;-52
2021/10/25 14:57:24;;;;;;;5.00;1.55;;;;;;;;;;5090156;28;20418;-51
2021/10/25 14:59:54;;;;;;;11.25;2.63;;;;;;;;;;5093583;28;20020;-51
2021/10/25 15:02:20;;;;;;;9.60;1.65;;;;;;;;;;5103637;28;20043;-51
2021/10/25 15:04:47;;;;;;;8.98;2.08;;;;;;;;;;5096932;28;20024;-51
2021/10/25 15:07:20;;;;;;;6.43;1.73;;;;;;;;;;5099797;28;20175;-50
2021/10/25 15:09:47;;;;;;;6.03;1.67;;;;;;;;;;5092437;28;20487;-51
2021/10/25 15:12:13;;;;;;;6.97;1.70;;;;;;;;;;5096320;28;20399;-50
2021/10/25 15:14:41;;;;;;;5.85;1.70;;;;;;;;;;5096297;28;20155;-51
2021/10/25 15:17:08;;;;;;;7.55;1.90;;;;;;;;;;5096299;28;20583;-47
2021/10/25 15:19:36;;;;;;;5.15;1.75;;;;;;;;;;5093684;28;20088;-47
2021/10/25 15:22:04;;;;;;;3.15;1.67;;;;;;;;;;5082771;28;20043;-48
2021/10/25 15:24:29;;;;;;;3.42;1.85;;;;;;;;;;5082332;28;20428;-47
2021/10/25 15:26:56;;;;;;;7.45;2.45;;;;;;;;;;5103087;28;20340;-48
2021/10/25 15:29:22;;;;;;;5.75;2.03;;;;;;;;;;5101853;28;20070;-48
2021/10/25 15:31:47;;;;;;;5.38;2.00;;;;;;;;;;5095777;28;20490;-48
2021/10/25 15:34:13;;;;;;;5.03;1.60;;;;;;;;;;5095638;28;20037;-51
2021/10/25 15:36:39;;;;;;;7.75;1.65;;;;;;;;;;5074863;28;20104;-47
2021/10/25 15:39:05;;;;;;;7.90;2.00;;;;;;;;;;5093858;28;20459;-48
2021/10/25 15:41:30;;;;;;;6.50;1.95;;;;;;;;;;5094827;28;20067;-47
2021/10/25 15:43:56;;;;;;;7.10;2.35;;;;;;;;;;5081497;28;20034;-48
2021/10/25 15:46:21;;;;;;;8.23;2.38;;;;;;;;;;5095601;28;20031;-50
2021/10/25 15:48:47;;;;;;;8.63;2.75;;;;;;;;;;5098197;28;20047;-50
2021/10/25 15:51:14;;;;;;;6.78;2.10;;;;;;;;;;5094163;28;20027;-50
2021/10/25 15:53:40;;;;;;;9.60;1.95;;;;;;;;;;5093600;28;20075;-49
2021/10/25 15:56:06;;;;;;;6.15;1.58;;;;;;;;;;5096950;28;20066;-51
2021/10/25 15:58:32;;;;;;;10.65;1.80;;;;;;;;;;5091550;28;20414;-50
2021/10/25 16:00:57;;;;;;;8.05;1.75;;;;;;;;;;5094973;28;20070;-57
2021/10/25 16:03:23;;;;;;;5.50;1.98;;;;;;;;;;5073678;28;20046;-49
2021/10/25 16:05:50;;;;;;;5.78;1.27;;;;;;;;;;5091571;28;20031;-48
2021/10/25 16:08:16;;;;;;;10.60;1.80;;;;;;;;;;5095228;28;20035;-49
2021/10/25 16:10:43;;;;;;;4.85;1.50;;;;;;;;;;5093850;28;20020;-48
2021/10/25 16:13:09;;;;;;;12.38;1.70;;;;;;;;;;5090890;28;20180;-49
2021/10/25 16:15:36;;;;;;;4.65;1.40;;;;;;;;;;5091914;28;20487;-48
2021/10/25 16:18:02;;;;;;;9.02;2.53;;;;;;;;;;5092481;28;20440;-48
2021/10/25 16:20:28;;;;;;;8.32;1.95;;;;;;;;;;5092140;28;20071;-47
2021/10/25 16:22:53;;;;;;;6.00;1.92;;;;;;;;;;5092284;28;20138;-48
2021/10/25 16:25:19;;;;;;;11.88;1.70;;;;;;;;;;5094634;28;20432;-48
2021/10/25 16:27:45;;;;;;;7.82;1.55;;;;;;;;;;5091656;28;20039;-47
2021/10/25 16:30:15;;;;;;;6.85;1.83;;;;;;;;;;5094978;28;20050;-47
2021/10/25 16:32:41;;;;;;;6.30;1.95;;;;;;;;;;5098082;27;20054;-47
2021/10/25 16:35:07;;;;;;;7.90;2.17;;;;;;;;;;5094719;28;20551;-47
2021/10/25 16:37:33;;;;;;;2.97;1.40;;;;;;;;;;5075679;28;20028;-47
2021/10/25 16:39:59;;;;;;;3.80;1.55;;;;;;;;;;5090493;28;20028;-48
2021/10/25 16:42:25;;;;;;;9.15;1.55;;;;;;;;;;5093094;28;20101;-47